createdAt,value
2018-07-17T00:01:30.200Z,6.17
2018-07-17T00:03:33.819Z,5.50
2018-07-17T00:05:37.361Z,5.47
2018-07-17T00:07:40.925Z,7.33
2018-07-17T00:09:44.646Z,7.90
2018-07-17T00:11:48.167Z,5.00
2018-07-17T00:13:51.802Z,9.47
2018-07-17T00:15:55.368Z,6.23
2018-07-17T00:17:58.917Z,5.40
2018-07-17T00:20:02.469Z,6.30
2018-07-17T00:22:05.992Z,5.17
2018-07-17T00:24:09.220Z,7.13
2018-07-17T00:26:12.700Z,6.50
2018-07-17T00:28:16.290Z,5.10
2018-07-17T00:30:19.804Z,7.67
2018-07-17T00:32:23.292Z,7.00
2018-07-17T00:34:26.822Z,7.93
2018-07-17T00:36:30.288Z,5.77
2018-07-17T00:38:33.764Z,6.33
2018-07-17T00:40:37.264Z,5.00
2018-07-17T00:42:40.752Z,5.10
2018-07-17T00:44:44.267Z,5.23
2018-07-17T00:46:47.784Z,6.53
2018-07-17T00:48:51.334Z,6.10
2018-07-17T00:50:54.823Z,4.40
2018-07-17T00:52:58.328Z,4.73
2018-07-17T00:55:01.802Z,4.77
2018-07-17T00:57:05.288Z,6.10
2018-07-17T00:59:09.010Z,5.50
2018-07-17T01:01:18.050Z,4.80
2018-07-17T01:03:26.760Z,6.77
2018-07-17T01:05:35.509Z,5.10
2018-07-17T01:07:44.283Z,5.67
2018-07-17T01:09:52.958Z,6.47
2018-07-17T01:12:01.729Z,4.80
2018-07-17T01:14:13.260Z,7.03
2018-07-17T01:16:16.748Z,5.20
2018-07-17T01:18:20.236Z,5.90
2018-07-17T01:20:24.080Z,5.30
2018-07-17T01:22:27.597Z,5.77
2018-07-17T01:24:31.158Z,5.20
2018-07-17T01:26:34.695Z,6.43
2018-07-17T01:28:38.212Z,5.47
2018-07-17T01:30:41.735Z,5.93
2018-07-17T01:32:45.268Z,6.60
2018-07-17T01:34:48.767Z,6.17
2018-07-17T01:36:51.920Z,4.70
2018-07-17T01:38:55.428Z,4.63
2018-07-17T01:40:58.891Z,11.33
2018-07-17T01:43:02.364Z,5.77
2018-07-17T01:45:05.846Z,8.57
2018-07-17T01:47:09.342Z,6.63
2018-07-17T01:49:13.123Z,6.47
2018-07-17T01:51:16.711Z,6.93
2018-07-17T01:53:20.196Z,5.37
2018-07-17T01:55:23.677Z,5.00
2018-07-17T01:57:27.135Z,5.13
2018-07-17T01:59:30.752Z,5.37
2018-07-17T02:01:34.267Z,5.27
2018-07-17T02:03:37.732Z,5.07
2018-07-17T02:05:41.244Z,6.87
2018-07-17T02:07:44.802Z,7.80
2018-07-17T02:09:48.319Z,5.17
2018-07-17T02:11:51.876Z,8.40
2018-07-17T02:13:55.029Z,5.20
2018-07-17T02:15:58.619Z,5.00
2018-07-17T02:18:02.100Z,9.03
2018-07-17T02:20:05.771Z,6.70
2018-07-17T02:22:09.247Z,6.97
2018-07-17T02:24:12.789Z,5.10
2018-07-17T02:26:16.299Z,6.77
2018-07-17T02:28:19.799Z,5.97
2018-07-17T02:30:23.327Z,5.70
2018-07-17T02:32:26.831Z,5.60
2018-07-17T02:34:30.343Z,5.10
2018-07-17T02:36:33.952Z,6.27
2018-07-17T02:38:37.461Z,5.13
2018-07-17T02:40:41.004Z,6.53
2018-07-17T02:42:44.511Z,7.77
2018-07-17T02:44:48.106Z,6.63
2018-07-17T02:46:51.662Z,5.60
2018-07-17T02:48:55.166Z,6.43
2018-07-17T02:50:58.732Z,5.27
2018-07-17T02:53:02.376Z,7.73
2018-07-17T02:55:06.123Z,5.33
2018-07-17T02:57:09.646Z,5.40
2018-07-17T02:59:13.167Z,5.40
2018-07-17T03:01:16.916Z,4.70
2018-07-17T03:03:20.738Z,7.50
2018-07-17T03:05:24.205Z,5.67
2018-07-17T03:07:27.966Z,6.30
2018-07-17T03:09:31.501Z,5.30
2018-07-17T03:11:35.037Z,8.90
2018-07-17T03:13:38.631Z,6.93
2018-07-17T03:15:42.111Z,6.53
2018-07-17T03:17:45.736Z,12.67
2018-07-17T03:19:49.258Z,5.03
2018-07-17T03:21:52.756Z,7.47
2018-07-17T03:23:56.304Z,6.00
2018-07-17T03:25:59.852Z,6.33
2018-07-17T03:28:03.479Z,6.10
2018-07-17T03:30:07.138Z,5.03
2018-07-17T03:32:10.767Z,5.43
2018-07-17T03:34:14.317Z,6.70
2018-07-17T03:36:17.860Z,8.60
2018-07-17T03:38:21.443Z,7.30
2018-07-17T03:40:24.944Z,8.33
2018-07-17T03:42:28.583Z,7.90
2018-07-17T03:44:32.088Z,6.60
2018-07-17T03:46:35.665Z,5.13
2018-07-17T03:48:39.243Z,8.13
2018-07-17T03:50:42.779Z,5.53
2018-07-17T03:52:46.245Z,9.50
2018-07-17T03:54:49.759Z,6.67
2018-07-17T03:56:53.315Z,6.73
2018-07-17T03:58:56.874Z,5.67
2018-07-17T04:01:00.468Z,8.00
2018-07-17T04:03:03.941Z,6.87
2018-07-17T04:05:07.671Z,7.60
2018-07-17T04:07:11.234Z,9.93
2018-07-17T04:09:14.646Z,7.27
2018-07-17T04:11:18.192Z,9.33
2018-07-17T04:13:21.752Z,9.50
2018-07-17T04:15:25.272Z,8.87
2018-07-17T04:17:28.873Z,8.73
2018-07-17T04:19:32.369Z,8.43
2018-07-17T04:21:35.951Z,6.33
2018-07-17T04:23:39.764Z,9.23
2018-07-17T04:25:43.279Z,7.73
2018-07-17T04:27:46.470Z,7.93
2018-07-17T04:29:50.034Z,8.47
2018-07-17T04:31:53.598Z,6.27
2018-07-17T04:33:57.007Z,8.37
2018-07-17T04:36:00.544Z,5.77
2018-07-17T04:38:04.043Z,5.13
2018-07-17T04:40:07.585Z,8.80
2018-07-17T04:42:11.138Z,5.57
2018-07-17T04:44:14.644Z,7.13
2018-07-17T04:46:17.794Z,6.37
2018-07-17T04:48:21.322Z,6.97
2018-07-17T04:50:24.867Z,9.73
2018-07-17T04:52:28.512Z,6.00
2018-07-17T04:54:31.988Z,7.13
2018-07-17T04:56:35.599Z,8.60
2018-07-17T04:58:38.842Z,7.27
2018-07-17T05:00:42.333Z,8.20
2018-07-17T05:02:45.815Z,9.27
2018-07-17T05:04:49.421Z,7.67
2018-07-17T05:06:52.951Z,6.87
2018-07-17T05:08:56.478Z,5.67
2018-07-17T05:10:59.987Z,5.50
2018-07-17T05:13:03.648Z,10.37
2018-07-17T05:15:07.116Z,8.23
2018-07-17T05:17:10.623Z,10.27
2018-07-17T05:19:14.108Z,11.80
2018-07-17T05:21:17.841Z,10.33
2018-07-17T05:23:21.351Z,9.50
2018-07-17T05:25:24.838Z,11.53
2018-07-17T05:27:28.093Z,14.03
2018-07-17T05:29:31.560Z,15.13
2018-07-17T05:31:41.722Z,17.37
2018-07-17T05:33:45.183Z,22.53
2018-07-17T05:35:48.685Z,15.37
2018-07-17T05:37:52.236Z,14.80
2018-07-17T05:39:55.776Z,14.90
2018-07-17T05:41:59.274Z,11.10
2018-07-17T05:44:02.769Z,21.87
2018-07-17T05:46:06.334Z,15.57
2018-07-17T05:48:09.883Z,19.90
2018-07-17T05:50:13.372Z,15.37
2018-07-17T05:52:16.988Z,16.37
2018-07-17T05:54:20.509Z,9.90
2018-07-17T05:56:24.003Z,12.67
2018-07-17T05:58:27.529Z,10.57
2018-07-17T06:00:31.079Z,11.87
2018-07-17T06:02:34.582Z,13.10
2018-07-17T06:04:38.195Z,11.90
2018-07-17T06:06:41.746Z,11.13
2018-07-17T06:08:45.251Z,11.30
2018-07-17T06:10:48.734Z,8.80
2018-07-17T06:12:52.235Z,9.50
2018-07-17T06:14:55.858Z,12.27
2018-07-17T06:16:59.421Z,11.03
2018-07-17T06:19:03.339Z,13.97
2018-07-17T06:21:06.984Z,12.83
2018-07-17T06:23:10.570Z,15.50
2018-07-17T06:25:14.208Z,10.63
2018-07-17T06:27:17.701Z,9.80
2018-07-17T06:29:21.185Z,9.70
2018-07-17T06:31:24.736Z,9.07
2018-07-17T06:33:28.249Z,9.97
2018-07-17T06:35:31.701Z,10.47
2018-07-17T06:37:35.411Z,13.20
2018-07-17T06:39:38.953Z,5.67
2018-07-17T06:41:42.483Z,17.10
2018-07-17T06:43:46.028Z,11.30
2018-07-17T06:45:49.539Z,11.13
2018-07-17T06:47:52.732Z,9.37
2018-07-17T06:49:55.985Z,12.93
2018-07-17T06:51:59.587Z,12.30
2018-07-17T06:54:03.112Z,10.00
2018-07-17T06:56:06.675Z,9.57
2018-07-17T06:58:10.194Z,6.40
2018-07-17T07:00:13.727Z,12.30
2018-07-17T07:02:17.204Z,8.87
2018-07-17T07:04:20.390Z,9.10
2018-07-17T07:06:23.892Z,13.57
2018-07-17T07:08:27.375Z,9.10
2018-07-17T07:10:30.862Z,12.00
2018-07-17T07:12:34.408Z,15.10
2018-07-17T07:14:38.054Z,12.23
2018-07-17T07:16:41.624Z,7.00
2018-07-17T07:18:45.142Z,8.43
2018-07-17T07:20:48.649Z,10.17
2018-07-17T07:22:52.204Z,10.60
2018-07-17T07:24:55.736Z,10.53
2018-07-17T07:26:59.437Z,7.23
2018-07-17T07:29:02.603Z,9.73
2018-07-17T07:31:06.191Z,4.40
2018-07-17T07:33:09.674Z,9.27
2018-07-17T07:35:13.160Z,5.40
2018-07-17T07:37:16.647Z,5.67
2018-07-17T07:39:20.406Z,9.30
2018-07-17T07:41:23.895Z,6.17
2018-07-17T07:43:27.382Z,6.20
2018-07-17T07:45:30.880Z,5.60
2018-07-17T07:47:34.367Z,5.93
2018-07-17T07:49:37.878Z,5.10
2018-07-17T07:51:41.396Z,4.20
2018-07-17T07:53:45.029Z,4.10
2018-07-17T07:55:48.563Z,5.87
2018-07-17T07:57:52.431Z,5.57
2018-07-17T07:59:55.971Z,4.07
2018-07-17T08:01:59.643Z,5.20
2018-07-17T08:04:03.215Z,6.27
2018-07-17T08:06:06.723Z,5.97
2018-07-17T08:08:10.339Z,5.63
2018-07-17T08:10:13.838Z,5.10
2018-07-17T08:12:17.524Z,5.20
2018-07-17T08:14:21.215Z,4.50
2018-07-17T08:16:24.830Z,5.33
2018-07-17T08:18:28.338Z,4.20
2018-07-17T08:20:31.859Z,5.77
2018-07-17T08:22:35.588Z,5.30
2018-07-17T08:24:39.191Z,4.23
2018-07-17T08:26:42.715Z,5.53
2018-07-17T08:28:46.400Z,4.77
2018-07-17T08:30:49.942Z,5.23
2018-07-17T08:32:53.249Z,4.33
2018-07-17T08:34:56.782Z,3.67
2018-07-17T08:37:00.309Z,4.80
2018-07-17T08:39:04.764Z,5.33
2018-07-17T08:41:08.357Z,6.47
2018-07-17T08:43:11.944Z,5.53
2018-07-17T08:45:15.431Z,3.70
2018-07-17T08:47:18.955Z,5.67
2018-07-17T08:49:22.442Z,4.25
2018-07-17T08:51:25.946Z,4.00
2018-07-17T08:53:29.483Z,4.57
2018-07-17T08:55:33.131Z,7.93
2018-07-17T08:57:36.647Z,7.30
2018-07-17T08:59:40.198Z,3.70
2018-07-17T09:01:43.692Z,6.33
2018-07-17T09:03:47.275Z,3.30
2018-07-17T09:05:50.866Z,4.03
2018-07-17T09:07:54.278Z,4.70
2018-07-17T09:09:57.790Z,3.83
2018-07-17T09:12:01.375Z,3.93
2018-07-17T09:14:05.008Z,6.78
2018-07-17T09:16:08.562Z,10.50
2018-07-17T09:18:12.053Z,4.47
2018-07-17T09:20:15.567Z,4.03
2018-07-17T09:22:19.023Z,3.77
2018-07-17T09:24:22.651Z,4.20
2018-07-17T09:26:26.231Z,3.83
2018-07-17T09:28:29.768Z,3.60
2018-07-17T09:30:38.527Z,6.90
2018-07-17T09:32:42.027Z,4.33
2018-07-17T09:34:45.523Z,3.97
2018-07-17T09:36:49.101Z,4.20
2018-07-17T09:38:52.648Z,3.90
2018-07-17T09:40:56.265Z,3.50
2018-07-17T09:42:59.760Z,6.23
2018-07-17T09:45:03.257Z,4.55
2018-07-17T09:47:07.056Z,3.87
2018-07-17T09:49:10.518Z,3.80
2018-07-17T09:51:14.032Z,3.77
2018-07-17T09:53:17.543Z,4.80
2018-07-17T09:55:21.042Z,3.10
2018-07-17T09:57:24.571Z,5.87
2018-07-17T09:59:28.086Z,3.60
2018-07-17T10:01:37.098Z,6.35
2018-07-17T10:03:40.600Z,3.60
2018-07-17T10:05:44.125Z,3.75
2018-07-17T10:07:47.622Z,4.60
2018-07-17T10:09:51.107Z,3.75
2018-07-17T10:11:54.579Z,4.07
2018-07-17T10:13:58.056Z,3.58
2018-07-17T10:16:01.592Z,5.03
2018-07-17T10:18:05.129Z,3.92
2018-07-17T10:20:09.237Z,3.87
2018-07-17T10:22:12.484Z,3.75
2018-07-17T10:24:15.951Z,5.30
2018-07-17T10:26:19.570Z,4.00
2018-07-17T10:28:23.057Z,4.58
2018-07-17T10:30:26.615Z,3.02
2018-07-17T10:32:30.107Z,5.53
2018-07-17T10:34:33.624Z,3.33
2018-07-17T10:36:37.193Z,4.72
2018-07-17T10:38:40.397Z,5.10
2018-07-17T10:40:43.956Z,3.15
2018-07-17T10:42:47.484Z,4.97
2018-07-17T10:44:51.157Z,4.50
2018-07-17T10:46:54.327Z,6.53
2018-07-17T10:48:57.829Z,6.58
2018-07-17T10:51:01.319Z,3.77
2018-07-17T10:53:04.908Z,3.83
2018-07-17T10:55:08.426Z,3.67
2018-07-17T10:57:11.928Z,4.17
2018-07-17T10:59:15.239Z,3.37
2018-07-17T11:01:18.728Z,3.05
2018-07-17T11:03:22.210Z,3.72
2018-07-17T11:05:25.710Z,3.25
2018-07-17T11:07:29.278Z,2.80
2018-07-17T11:09:32.761Z,4.40
2018-07-17T11:11:36.376Z,5.15
2018-07-17T11:13:39.944Z,3.25
2018-07-17T11:15:43.517Z,5.40
2018-07-17T11:17:47.007Z,4.40
2018-07-17T11:19:50.487Z,3.02
2018-07-17T11:21:54.424Z,3.00
2018-07-17T11:23:57.907Z,4.05
2018-07-17T11:26:01.376Z,2.83
2018-07-17T11:28:04.908Z,3.72
2018-07-17T11:30:08.551Z,3.72
2018-07-17T11:32:12.166Z,2.52
2018-07-17T11:34:15.681Z,6.65
2018-07-17T11:36:19.267Z,2.95
2018-07-17T11:38:22.814Z,3.47
2018-07-17T11:40:26.321Z,2.52
2018-07-17T11:42:29.850Z,4.15
2018-07-17T11:44:33.416Z,5.70
2018-07-17T11:46:36.923Z,8.20
2018-07-17T11:48:40.443Z,3.70
2018-07-17T11:50:43.986Z,2.40
2018-07-17T11:52:47.563Z,10.43
2018-07-17T11:54:51.132Z,5.67
2018-07-17T11:56:54.313Z,5.15
2018-07-17T11:58:57.865Z,5.37
2018-07-17T12:01:01.469Z,5.65
2018-07-17T12:03:05.137Z,1.87
2018-07-17T12:05:08.704Z,2.22
2018-07-17T12:07:12.209Z,2.45
2018-07-17T12:09:15.692Z,4.03
2018-07-17T12:11:19.202Z,4.10
2018-07-17T12:13:22.820Z,4.55
2018-07-17T12:15:26.421Z,3.70
2018-07-17T12:17:29.953Z,3.27
2018-07-17T12:19:33.479Z,2.72
2018-07-17T12:21:37.003Z,5.33
2018-07-17T12:23:40.472Z,4.97
2018-07-17T12:25:44.017Z,2.80
2018-07-17T12:27:47.686Z,3.30
2018-07-17T12:29:51.199Z,3.47
2018-07-17T12:31:54.766Z,3.85
2018-07-17T12:33:58.288Z,3.20
2018-07-17T12:36:01.964Z,3.30
2018-07-17T12:38:05.670Z,4.35
2018-07-17T12:40:09.275Z,2.92
2018-07-17T12:42:12.864Z,3.60
2018-07-17T12:44:16.579Z,4.05
2018-07-17T12:46:20.071Z,2.67
2018-07-17T12:48:23.648Z,4.12
2018-07-17T12:50:27.191Z,3.22
2018-07-17T12:52:30.799Z,4.22
2018-07-17T12:54:34.304Z,3.08
2018-07-17T12:56:37.831Z,2.83
2018-07-17T12:58:42.345Z,3.52
2018-07-17T13:00:45.874Z,4.40
2018-07-17T13:02:49.444Z,3.90
2018-07-17T13:04:52.878Z,4.70
2018-07-17T13:06:56.440Z,4.53
2018-07-17T13:08:59.979Z,2.75
2018-07-17T13:11:03.540Z,3.50
2018-07-17T13:13:07.078Z,4.12
2018-07-17T13:15:10.756Z,3.92
2018-07-17T13:17:14.267Z,2.70
2018-07-17T13:19:17.780Z,3.65
2018-07-17T13:21:21.284Z,3.83
2018-07-17T13:23:24.814Z,4.20
2018-07-17T13:25:28.363Z,2.85
2018-07-17T13:27:31.851Z,4.58
2018-07-17T13:29:35.414Z,3.10
2018-07-17T13:31:38.944Z,2.90
2018-07-17T13:33:42.865Z,2.67
2018-07-17T13:35:46.318Z,3.72
2018-07-17T13:37:49.947Z,3.12
2018-07-17T13:39:53.431Z,3.77
2018-07-17T13:41:56.931Z,6.33
2018-07-17T13:44:00.478Z,4.47
2018-07-17T13:46:04.019Z,3.83
2018-07-17T13:48:07.631Z,2.47
2018-07-17T13:50:11.233Z,5.60
2018-07-17T13:52:14.703Z,4.12
2018-07-17T13:54:18.259Z,3.40
2018-07-17T13:56:21.823Z,5.37
2018-07-17T13:58:25.286Z,4.90
2018-07-17T14:00:28.819Z,2.65
2018-07-17T14:02:32.395Z,2.45
2018-07-17T14:04:36.357Z,4.85
2018-07-17T14:06:39.991Z,3.65
2018-07-17T14:08:43.518Z,4.05
2018-07-17T14:10:47.114Z,2.80
2018-07-17T14:12:50.731Z,5.33
2018-07-17T14:14:54.025Z,5.12
2018-07-17T14:16:57.551Z,4.75
2018-07-17T14:19:01.051Z,3.17
2018-07-17T14:21:04.698Z,7.17
2018-07-17T14:23:08.216Z,5.35
2018-07-17T14:25:11.863Z,4.10
2018-07-17T14:27:15.401Z,4.22
2018-07-17T14:29:18.936Z,4.42
2018-07-17T14:31:22.458Z,4.83
2018-07-17T14:33:26.012Z,2.47
2018-07-17T14:35:29.607Z,5.78
2018-07-17T14:37:33.160Z,4.03
2018-07-17T14:39:36.740Z,2.47
2018-07-17T14:41:40.341Z,3.47
2018-07-17T14:43:43.816Z,3.55
2018-07-17T14:45:47.303Z,3.85
2018-07-17T14:47:50.900Z,4.33
2018-07-17T14:49:54.405Z,2.98
2018-07-17T14:51:57.895Z,4.15
2018-07-17T14:54:01.424Z,3.52
2018-07-17T14:56:05.063Z,4.53
2018-07-17T14:58:08.620Z,2.75
2018-07-17T15:00:12.483Z,2.55
2018-07-17T15:02:16.025Z,2.90
2018-07-17T15:04:19.514Z,2.90
2018-07-17T15:06:23.011Z,6.03
2018-07-17T15:08:26.735Z,3.45
2018-07-17T15:10:30.321Z,3.52
2018-07-17T15:12:33.905Z,2.62
2018-07-17T15:14:37.465Z,3.22
2018-07-17T15:16:41.007Z,3.52
2018-07-17T15:18:44.504Z,3.05
2018-07-17T15:20:48.087Z,3.92
2018-07-17T15:22:51.615Z,6.37
2018-07-17T15:24:55.507Z,3.90
2018-07-17T15:26:59.070Z,10.07
2018-07-17T15:29:02.607Z,4.92
2018-07-17T15:31:06.140Z,4.60
2018-07-17T15:33:09.631Z,4.70
2018-07-17T15:35:13.269Z,4.57
2018-07-17T15:37:16.775Z,4.80
2018-07-17T15:39:20.303Z,6.37
2018-07-17T15:41:23.863Z,7.80
2018-07-17T15:43:27.390Z,4.73
2018-07-17T15:45:30.985Z,5.73
2018-07-17T15:47:34.413Z,3.97
2018-07-17T15:49:37.961Z,6.45
2018-07-17T15:51:41.507Z,4.90
2018-07-17T15:53:45.025Z,5.47
2018-07-17T15:55:48.561Z,3.83
2018-07-17T15:57:51.726Z,5.23
2018-07-17T15:59:55.476Z,6.33
2018-07-17T16:01:58.984Z,5.57
2018-07-17T16:04:02.516Z,3.53
2018-07-17T16:06:06.118Z,4.00
2018-07-17T16:08:09.609Z,3.97
2018-07-17T16:10:13.109Z,5.77
2018-07-17T16:12:16.659Z,7.53
2018-07-17T16:14:20.849Z,4.63
2018-07-17T16:16:24.062Z,3.57
2018-07-17T16:18:27.532Z,5.00
2018-07-17T16:20:31.086Z,3.80
2018-07-17T16:22:34.589Z,4.00
2018-07-17T16:24:38.225Z,3.70
2018-07-17T16:26:41.864Z,3.85
2018-07-17T16:28:45.272Z,3.22
2018-07-17T16:30:48.799Z,3.40
2018-07-17T16:32:51.970Z,4.60
2018-07-17T16:34:55.537Z,5.35
2018-07-17T16:36:59.268Z,4.75
2018-07-17T16:39:02.904Z,4.10
2018-07-17T16:41:06.795Z,3.27
2018-07-17T16:43:09.942Z,5.53
2018-07-17T16:45:13.538Z,7.25
2018-07-17T16:47:17.026Z,3.22
2018-07-17T16:49:20.549Z,4.47
2018-07-17T16:51:24.091Z,5.35
2018-07-17T16:53:27.596Z,3.62
2018-07-17T16:55:31.188Z,3.00
2018-07-17T16:57:34.708Z,4.58
2018-07-17T16:59:38.262Z,3.15
2018-07-17T17:01:41.805Z,3.83
2018-07-17T17:03:45.291Z,4.53
2018-07-17T17:05:48.897Z,3.45
2018-07-17T17:07:52.407Z,3.92
2018-07-17T17:09:55.911Z,4.40
2018-07-17T17:11:59.491Z,3.35
2018-07-17T17:14:03.094Z,3.20
2018-07-17T17:16:06.675Z,3.25
2018-07-17T17:18:10.218Z,3.80
2018-07-17T17:20:13.746Z,5.12
2018-07-17T17:22:17.287Z,2.98
2018-07-17T17:24:21.042Z,4.05
2018-07-17T17:26:24.492Z,4.65
2018-07-17T17:28:28.035Z,3.05
2018-07-17T17:30:31.693Z,3.22
2018-07-17T17:32:35.150Z,5.33
2018-07-17T17:34:38.755Z,3.52
2018-07-17T17:36:42.379Z,3.87
2018-07-17T17:38:45.859Z,3.20
2018-07-17T17:40:49.407Z,3.15
2018-07-17T17:42:52.921Z,3.80
2018-07-17T17:44:56.468Z,3.55
2018-07-17T17:46:59.647Z,3.42
2018-07-17T17:49:02.833Z,3.30
2018-07-17T17:51:06.699Z,3.70
2018-07-17T17:53:10.253Z,4.03
2018-07-17T17:55:13.426Z,3.90
2018-07-17T17:57:16.998Z,3.08
2018-07-17T17:59:20.567Z,2.70
2018-07-17T18:01:24.161Z,4.58
2018-07-17T18:03:27.664Z,3.75
2018-07-17T18:05:31.148Z,2.72
2018-07-17T18:07:34.680Z,3.00
2018-07-17T18:09:38.184Z,2.95
2018-07-17T18:11:41.739Z,2.58
2018-07-17T18:13:45.310Z,3.02
2018-07-17T18:15:48.867Z,2.58
2018-07-17T18:17:52.414Z,2.55
2018-07-17T18:19:56.020Z,2.90
2018-07-17T18:21:59.711Z,3.08
2018-07-17T18:24:03.281Z,3.85
2018-07-17T18:26:06.866Z,2.60
2018-07-17T18:28:10.449Z,2.30
2018-07-17T18:30:13.996Z,4.28
2018-07-17T18:32:17.492Z,2.55
2018-07-17T18:34:21.153Z,2.42
2018-07-17T18:36:24.577Z,3.02
2018-07-17T18:38:28.078Z,2.60
2018-07-17T18:40:31.764Z,2.20
2018-07-17T18:42:35.343Z,3.00
2018-07-17T18:44:38.997Z,2.75
2018-07-17T18:46:42.571Z,4.33
2018-07-17T18:48:48.556Z,2.50
2018-07-17T18:50:52.141Z,3.25
2018-07-17T18:52:55.791Z,2.35
2018-07-17T18:54:59.393Z,2.60
2018-07-17T18:57:02.978Z,3.63
2018-07-17T18:59:06.536Z,2.60
2018-07-17T19:01:10.289Z,2.53
2018-07-17T19:03:13.891Z,2.40
2018-07-17T19:05:17.506Z,2.85
2018-07-17T19:07:21.022Z,5.67
2018-07-17T19:09:24.507Z,4.60
2018-07-17T19:11:28.100Z,3.63
2018-07-17T19:13:31.629Z,2.70
2018-07-17T19:15:35.240Z,7.27
2018-07-17T19:17:38.898Z,4.93
2018-07-17T19:19:42.396Z,4.63
2018-07-17T19:21:45.960Z,7.87
2018-07-17T19:23:49.442Z,3.77
2018-07-17T19:25:53.268Z,3.60
2018-07-17T19:27:56.844Z,5.37
2018-07-17T19:30:01.217Z,3.57
2018-07-17T19:32:04.922Z,3.63
2018-07-17T19:34:08.420Z,3.20
2018-07-17T19:36:11.921Z,2.70
2018-07-17T19:38:15.580Z,4.40
2018-07-17T19:40:19.139Z,2.87
2018-07-17T19:42:22.699Z,2.73
2018-07-17T19:44:26.216Z,2.90
2018-07-17T19:46:29.770Z,2.95
2018-07-17T19:48:33.309Z,3.13
2018-07-17T19:50:36.824Z,3.17
2018-07-17T19:52:40.397Z,2.70
2018-07-17T19:54:43.924Z,2.60
2018-07-17T19:56:47.428Z,5.43
2018-07-17T19:58:51.011Z,3.67
2018-07-17T20:00:54.535Z,3.27
2018-07-17T20:02:58.146Z,5.43
2018-07-17T20:05:01.651Z,4.47
2018-07-17T20:07:05.675Z,3.73
2018-07-17T20:09:09.964Z,3.20
2018-07-17T20:11:13.488Z,3.30
2018-07-17T20:13:17.433Z,3.43
2018-07-17T20:15:20.976Z,3.53
2018-07-17T20:17:24.520Z,4.00
2018-07-17T20:19:27.754Z,3.30
2018-07-17T20:21:31.562Z,3.63
2018-07-17T20:23:35.420Z,3.27
2018-07-17T20:25:38.994Z,5.40
2018-07-17T20:27:42.493Z,3.30
2018-07-17T20:29:46.166Z,3.50
2018-07-17T20:31:49.763Z,4.37
2018-07-17T20:33:53.423Z,7.33
2018-07-17T20:35:57.142Z,5.13
2018-07-17T20:38:00.800Z,6.30
2018-07-17T20:40:04.602Z,3.70
2018-07-17T20:42:08.158Z,4.93
2018-07-17T20:44:11.692Z,4.33
2018-07-17T20:46:15.179Z,3.47
2018-07-17T20:48:18.715Z,4.87
2018-07-17T20:50:22.303Z,5.13
2018-07-17T20:52:25.846Z,3.63
2018-07-17T20:54:29.415Z,3.80
2018-07-17T20:56:32.926Z,3.80
2018-07-17T20:58:36.484Z,3.83
2018-07-17T21:00:40.008Z,3.47
2018-07-17T21:02:43.512Z,3.30
2018-07-17T21:04:47.110Z,4.23
2018-07-17T21:06:50.590Z,4.83
2018-07-17T21:08:54.129Z,3.63
2018-07-17T21:10:57.701Z,5.30
2018-07-17T21:13:01.219Z,3.63
2018-07-17T21:15:04.952Z,4.37
2018-07-17T21:17:08.621Z,5.57
2018-07-17T21:19:12.207Z,3.97
2018-07-17T21:21:15.736Z,6.83
2018-07-17T21:23:19.290Z,3.67
2018-07-17T21:25:22.911Z,3.60
2018-07-17T21:27:26.399Z,3.63
2018-07-17T21:29:29.927Z,4.27
2018-07-17T21:31:33.737Z,3.80
2018-07-17T21:33:37.275Z,3.97
2018-07-17T21:35:40.742Z,4.70
2018-07-17T21:37:44.435Z,4.87
2018-07-17T21:39:47.732Z,5.43
2018-07-17T21:41:51.374Z,4.03
2018-07-17T21:43:54.915Z,4.00
2018-07-17T21:45:58.083Z,4.03
2018-07-17T21:48:01.792Z,5.83
2018-07-17T21:50:05.708Z,4.17
2018-07-17T21:52:09.243Z,3.13
2018-07-17T21:54:12.788Z,5.17
2018-07-17T21:56:16.335Z,5.03
2018-07-17T21:58:19.827Z,4.37
2018-07-17T22:00:23.350Z,4.50
2018-07-17T22:02:27.008Z,7.93
2018-07-17T22:04:30.719Z,5.27
2018-07-17T22:06:34.201Z,4.67
2018-07-17T22:08:37.752Z,4.07
2018-07-17T22:10:41.256Z,4.13
2018-07-17T22:12:44.811Z,3.90
2018-07-17T22:14:48.336Z,4.83
2018-07-17T22:16:51.932Z,4.93
2018-07-17T22:18:55.449Z,7.17
2018-07-17T22:20:59.016Z,4.60
2018-07-17T22:23:02.503Z,4.60
2018-07-17T22:25:06.040Z,5.50
2018-07-17T22:27:09.631Z,4.40
2018-07-17T22:29:13.166Z,5.30
2018-07-17T22:31:16.656Z,5.10
2018-07-17T22:33:20.261Z,5.00
2018-07-17T22:35:23.808Z,5.23
2018-07-17T22:37:27.279Z,6.37
2018-07-17T22:39:30.819Z,5.93
2018-07-17T22:41:34.334Z,5.00
2018-07-17T22:43:37.875Z,4.57
2018-07-17T22:45:41.441Z,4.80
2018-07-17T22:47:44.980Z,5.13
2018-07-17T22:49:48.573Z,6.73
2018-07-17T22:51:53.546Z,5.53
2018-07-17T22:53:57.124Z,5.77
2018-07-17T22:56:00.616Z,5.50
2018-07-17T22:58:04.297Z,5.50
2018-07-17T23:00:07.923Z,5.70
2018-07-17T23:02:11.453Z,7.13
2018-07-17T23:04:15.018Z,5.67
2018-07-17T23:06:18.564Z,5.20
2018-07-17T23:08:22.051Z,7.33
2018-07-17T23:10:25.549Z,8.70
2018-07-17T23:12:29.035Z,7.40
2018-07-17T23:14:32.609Z,5.90
2018-07-17T23:16:36.104Z,6.10
2018-07-17T23:18:39.617Z,5.77
2018-07-17T23:20:43.250Z,5.33
2018-07-17T23:22:59.092Z,6.70
2018-07-17T23:25:02.620Z,5.30
2018-07-17T23:27:06.212Z,5.03
2018-07-17T23:29:09.751Z,4.97
2018-07-17T23:31:13.258Z,3.23
2018-07-17T23:33:16.744Z,3.30
2018-07-17T23:35:21.575Z,3.70
2018-07-17T23:37:25.073Z,5.10
2018-07-17T23:39:28.592Z,3.90
2018-07-17T23:41:32.290Z,3.40
2018-07-17T23:43:35.776Z,3.63
2018-07-17T23:45:38.978Z,4.40
2018-07-17T23:47:42.477Z,3.47
2018-07-17T23:49:46.000Z,3.83
2018-07-17T23:51:49.486Z,3.17
2018-07-17T23:53:53.072Z,3.20
2018-07-17T23:55:56.672Z,2.97
2018-07-17T23:58:00.215Z,3.47
